Hlavní strana
METAR-TAF:

METAR-TAF

Letiště :

Ørland, Norsko

zeměpisná šířka: 63-42N, zeměpisná délka: 009-36E, výška: 0 m

Aktuální stav počasí

Zpráva byla vytvořena před 55 minutami, v 02:50 UTC
Východní vítr 4 kt
Teplota 4°C
Vlhkost vzduchu 93%
Tlak 1042 hPa
Viditelnost 10 km a více
Skoro jasno ve výšce 2000 ft

METAR: ENOL 180250Z 09004KT 9999 FEW020 04/03 Q1042

Čas: 04:45 (03:45 UTC)

Předpověď počasí

Předpověď platná od 18 v 00 UTC do 18 v 24 UTC
Jihovýchodní vítr 10 kt
Viditelnost 10 km a více
Polojasno ve výšce 3000 ft
Dočasný
od 18 v 18 UTC do 18 v 24 UTC
vítr z různých směrů 5 kt
Viditelnost: 0200 m
ve výšce 200 ft
mlha

TAF: ENOL 1800/1824 13010KT 9999 SCT030 TEMPO 1818/1824 VRB05KT 0200 FG VV002

Stav a předpovědi počasí z více než 4 000 letišť (zprávy METAR a TAF).

Červené a žluté tečky na mapě představují dostupné meteorologické stanice.

Když kurzor umístíte na tečku, zobrazí se název stanice.

Pak kliknutím zobrazíte stav a předpověď počasí.

Chcete-li změnit mapu, kliknutím na zelené tlačítko se znaménkem +mapu přiblížíte, kliknutím na zelené tlačítko se znaménkem – mapu oddálíte a kliknutím na zelené šipky přejdete na sousední mapy.


METAR-TAF: